createdAt,value
2022-11-11T00:01:56.145Z,67.04
2022-11-11T00:04:41.883Z,66.78
2022-11-11T00:07:29.531Z,66.85
2022-11-11T00:10:15.705Z,66.74
2022-11-11T00:13:02.253Z,66.81
2022-11-11T00:15:48.033Z,66.54
2022-11-11T00:18:53.411Z,66.62
2022-11-11T00:21:58.531Z,66.65
2022-11-11T00:25:03.070Z,66.51
2022-11-11T00:27:49.113Z,66.36
2022-11-11T00:30:35.006Z,66.37
2022-11-11T00:33:20.735Z,66.25
2022-11-11T00:36:07.778Z,66.18
2022-11-11T00:38:55.910Z,66.29
2022-11-11T00:41:41.755Z,66.23
2022-11-11T00:44:27.844Z,66.06
2022-11-11T00:47:32.306Z,66.05
2022-11-11T00:50:38.738Z,65.97
2022-11-11T00:53:27.793Z,65.92
2022-11-11T00:56:13.991Z,66.03
2022-11-11T00:58:59.937Z,65.88
2022-11-11T01:01:46.014Z,66.00
2022-11-11T01:04:31.915Z,65.95
2022-11-11T01:07:18.156Z,65.90
2022-11-11T01:10:04.425Z,65.73
2022-11-11T01:13:12.315Z,65.63
2022-11-11T01:16:05.229Z,65.83
2022-11-11T01:18:52.656Z,65.82
2022-11-11T01:21:38.903Z,65.75
2022-11-11T01:24:25.352Z,65.86
2022-11-11T01:27:11.349Z,65.91
2022-11-11T01:29:57.389Z,65.69
2022-11-11T01:32:43.468Z,65.79
2022-11-11T01:35:29.428Z,65.91
2022-11-11T01:38:15.417Z,65.57
2022-11-11T01:41:21.908Z,65.60
2022-11-11T01:44:11.163Z,65.62
2022-11-11T01:47:04.417Z,65.62
2022-11-11T01:50:02.133Z,65.57
2022-11-11T01:52:48.238Z,65.59
2022-11-11T01:55:34.235Z,65.44
2022-11-11T01:58:21.490Z,65.62
2022-11-11T02:01:07.263Z,65.33
2022-11-11T02:04:14.955Z,65.35
2022-11-11T02:07:04.853Z,65.46
2022-11-11T02:09:52.978Z,65.44
2022-11-11T02:12:57.091Z,65.27
2022-11-11T02:15:43.345Z,65.34
2022-11-11T02:18:33.328Z,65.54
2022-11-11T02:21:37.350Z,65.19
2022-11-11T02:24:24.935Z,65.15
2022-11-11T02:27:14.565Z,65.37
2022-11-11T02:30:02.173Z,65.24
2022-11-11T02:32:51.293Z,65.30
2022-11-11T02:35:41.036Z,65.33
2022-11-11T02:38:27.485Z,65.31
2022-11-11T02:41:31.873Z,65.47
2022-11-11T02:44:17.941Z,65.38
2022-11-11T02:47:05.316Z,65.44
2022-11-11T02:49:51.417Z,65.32
2022-11-11T02:52:37.575Z,65.05
2022-11-11T02:55:23.563Z,65.40
2022-11-11T02:58:09.482Z,65.53
2022-11-11T03:00:55.374Z,65.35
2022-11-11T03:03:41.430Z,65.21
2022-11-11T03:06:27.280Z,65.11
2022-11-11T03:09:13.110Z,65.28
2022-11-11T03:11:59.211Z,65.09
2022-11-11T03:14:45.155Z,64.99
2022-11-11T03:17:40.069Z,65.13
2022-11-11T03:20:44.919Z,65.18
2022-11-11T03:23:30.836Z,65.19
2022-11-11T03:26:16.306Z,64.97
2022-11-11T03:29:02.316Z,65.07
2022-11-11T03:31:48.219Z,65.01
2022-11-11T03:34:34.484Z,65.15
2022-11-11T03:37:52.539Z,65.15
2022-11-11T03:40:38.171Z,65.08
2022-11-11T03:43:30.320Z,64.89
2022-11-11T03:46:15.889Z,64.94
2022-11-11T03:49:01.899Z,65.04
2022-11-11T03:51:47.427Z,65.11
2022-11-11T03:54:32.963Z,65.31
2022-11-11T03:57:30.774Z,64.99
2022-11-11T04:00:20.225Z,64.88
2022-11-11T04:03:37.851Z,64.85
2022-11-11T04:06:42.336Z,64.81
2022-11-11T04:09:46.557Z,64.83
2022-11-11T04:12:55.239Z,64.98
2022-11-11T04:15:59.739Z,64.98
2022-11-11T04:19:03.912Z,64.89
2022-11-11T04:21:50.144Z,64.86
2022-11-11T04:24:55.039Z,64.69
2022-11-11T04:27:40.814Z,64.47
2022-11-11T04:30:26.744Z,64.75
2022-11-11T04:33:12.487Z,64.63
2022-11-11T04:35:58.286Z,64.43
2022-11-11T04:39:02.789Z,64.63
2022-11-11T04:42:07.266Z,64.75
2022-11-11T04:45:13.159Z,64.57
2022-11-11T04:48:10.639Z,64.58
2022-11-11T04:50:56.274Z,64.74
2022-11-11T04:53:42.340Z,64.71
2022-11-11T04:56:46.927Z,64.97
2022-11-11T04:59:32.611Z,64.69
2022-11-11T05:02:37.356Z,64.87
2022-11-11T05:05:24.670Z,64.62
2022-11-11T05:08:28.917Z,64.97
2022-11-11T05:11:15.077Z,64.71
2022-11-11T05:14:21.679Z,64.85
2022-11-11T05:17:28.542Z,64.62
2022-11-11T05:20:40.376Z,64.42
2022-11-11T05:23:46.060Z,64.64
2022-11-11T05:26:32.437Z,64.77
2022-11-11T05:29:18.466Z,64.69
2022-11-11T05:32:05.098Z,64.50
2022-11-11T05:34:51.039Z,64.33
2022-11-11T05:37:37.036Z,64.65
2022-11-11T05:40:22.883Z,64.39
2022-11-11T05:43:08.582Z,64.55
2022-11-11T05:45:54.613Z,64.41
2022-11-11T05:49:00.261Z,64.41
2022-11-11T05:51:46.929Z,64.50
2022-11-11T05:54:33.372Z,64.48
2022-11-11T05:57:19.138Z,64.49
2022-11-11T06:00:05.248Z,64.35
2022-11-11T06:02:51.193Z,64.26
2022-11-11T06:05:37.802Z,64.35
2022-11-11T06:08:23.720Z,64.40
2022-11-11T06:11:09.958Z,64.22
2022-11-11T06:13:55.918Z,64.22
2022-11-11T06:16:41.705Z,64.33
2022-11-11T06:19:27.592Z,64.33
2022-11-11T06:22:13.561Z,64.27
2022-11-11T06:25:19.367Z,64.25
2022-11-11T06:28:04.984Z,64.22
2022-11-11T06:30:51.692Z,64.19
2022-11-11T06:33:39.034Z,64.24
2022-11-11T06:36:24.989Z,64.22
2022-11-11T06:39:10.860Z,64.04
2022-11-11T06:41:57.104Z,64.18
2022-11-11T06:44:42.807Z,63.94
2022-11-11T06:47:28.683Z,64.11
2022-11-11T06:50:15.010Z,63.97
2022-11-11T06:53:09.084Z,64.17
2022-11-11T06:55:55.421Z,64.17
2022-11-11T06:58:41.824Z,64.08
2022-11-11T07:01:27.838Z,63.98
2022-11-11T07:04:13.715Z,64.10
2022-11-11T07:06:59.640Z,64.04
2022-11-11T07:09:45.625Z,64.19
2022-11-11T07:12:31.404Z,64.14
2022-11-11T07:15:17.316Z,64.04
2022-11-11T07:18:03.680Z,63.94
2022-11-11T07:20:49.706Z,63.83
2022-11-11T07:23:35.705Z,63.84
2022-11-11T07:26:21.655Z,64.12
2022-11-11T07:29:07.937Z,64.06
2022-11-11T07:31:53.514Z,63.88
2022-11-11T07:34:39.394Z,63.91
2022-11-11T07:37:27.984Z,63.92
2022-11-11T07:40:16.462Z,63.83
2022-11-11T07:43:02.278Z,63.92
2022-11-11T07:45:48.390Z,63.87
2022-11-11T07:48:34.486Z,63.97
2022-11-11T07:51:19.980Z,63.78
2022-11-11T07:54:06.018Z,63.66
2022-11-11T07:56:51.969Z,63.97
2022-11-11T07:59:37.945Z,63.82
2022-11-11T08:02:23.874Z,63.89
2022-11-11T08:05:10.358Z,63.86
2022-11-11T08:07:56.231Z,63.78
2022-11-11T08:10:42.109Z,63.99
2022-11-11T08:13:43.686Z,64.27
2022-11-11T08:16:29.199Z,64.31
2022-11-11T08:19:15.059Z,64.19
2022-11-11T08:22:00.777Z,64.09
2022-11-11T08:25:03.808Z,64.21
2022-11-11T08:27:50.316Z,64.16
2022-11-11T08:30:36.233Z,64.23
2022-11-11T08:33:37.290Z,64.17
2022-11-11T08:36:23.903Z,64.03
2022-11-11T08:39:09.764Z,64.02
2022-11-11T08:41:55.677Z,63.87
2022-11-11T08:44:41.227Z,63.89
2022-11-11T08:47:26.905Z,63.81
2022-11-11T08:50:13.245Z,63.74
2022-11-11T08:52:59.019Z,63.65
2022-11-11T08:55:45.063Z,63.65
2022-11-11T08:58:31.210Z,63.84
2022-11-11T09:01:17.078Z,63.58
2022-11-11T09:04:22.973Z,63.77
2022-11-11T09:07:10.453Z,63.53
2022-11-11T09:09:56.472Z,63.58
2022-11-11T09:12:42.383Z,63.53
2022-11-11T09:15:28.806Z,63.34
2022-11-11T09:18:14.761Z,63.41
2022-11-11T09:21:00.960Z,63.58
2022-11-11T09:23:46.601Z,63.67
2022-11-11T09:26:32.461Z,63.74
2022-11-11T09:29:19.263Z,63.64
2022-11-11T09:32:05.512Z,63.82
2022-11-11T09:34:51.256Z,63.33
2022-11-11T09:37:37.162Z,63.65
2022-11-11T09:40:25.946Z,63.79
2022-11-11T09:43:27.296Z,64.03
2022-11-11T09:46:47.275Z,63.56
2022-11-11T09:49:56.747Z,63.65
2022-11-11T09:52:42.440Z,64.04
2022-11-11T09:55:33.298Z,64.02
2022-11-11T09:58:22.436Z,63.94
2022-11-11T10:01:17.082Z,64.01
2022-11-11T10:04:20.347Z,63.92
2022-11-11T10:07:14.416Z,63.92
2022-11-11T10:10:06.919Z,63.81
2022-11-11T10:12:59.059Z,63.85
2022-11-11T10:16:17.463Z,63.59
2022-11-11T10:19:05.870Z,63.76
2022-11-11T10:25:12.269Z,63.54
2022-11-11T10:28:01.826Z,63.50
2022-11-11T10:30:49.135Z,63.60
2022-11-11T10:33:50.546Z,63.31
2022-11-11T10:36:42.672Z,63.07
2022-11-11T10:40:06.930Z,63.41
2022-11-11T10:42:52.573Z,63.36
2022-11-11T10:45:54.327Z,63.01
2022-11-11T10:49:11.148Z,62.92
2022-11-11T10:52:55.335Z,63.02
2022-11-11T10:55:49.464Z,63.05
2022-11-11T10:58:47.026Z,63.12
2022-11-11T11:01:41.998Z,63.15
2022-11-11T11:04:40.724Z,62.86
2022-11-11T11:07:34.593Z,63.21
2022-11-11T11:10:34.324Z,63.02
2022-11-11T11:13:30.013Z,63.24
2022-11-11T11:16:25.698Z,62.96
2022-11-11T11:19:25.829Z,62.99
2022-11-11T11:22:11.979Z,63.21
2022-11-11T11:25:12.515Z,63.05
2022-11-11T11:28:06.641Z,62.81
2022-11-11T11:31:05.203Z,62.97
2022-11-11T11:33:56.307Z,62.93
2022-11-11T11:36:42.712Z,63.28
2022-11-11T11:39:39.998Z,63.01
2022-11-11T11:42:36.231Z,63.34
2022-11-11T11:45:24.632Z,63.71
2022-11-11T11:48:40.997Z,63.49
2022-11-11T11:51:32.856Z,63.54
2022-11-11T11:54:43.851Z,63.69
2022-11-11T11:57:43.446Z,63.98
2022-11-11T12:00:43.398Z,63.92
2022-11-11T12:04:07.824Z,63.77
2022-11-11T12:07:06.116Z,63.92
2022-11-11T12:10:06.016Z,64.13
2022-11-11T12:13:18.120Z,63.77
2022-11-11T12:16:04.151Z,63.93
2022-11-11T12:19:08.302Z,63.80
2022-11-11T12:22:28.448Z,64.02
2022-11-11T12:25:17.307Z,63.86
2022-11-11T12:28:05.952Z,63.77
2022-11-11T12:31:18.838Z,63.94
2022-11-11T12:34:23.566Z,63.80
2022-11-11T12:37:12.355Z,63.49
2022-11-11T12:39:58.172Z,63.54
2022-11-11T12:43:14.190Z,63.52
2022-11-11T12:46:27.747Z,63.70
2022-11-11T12:49:43.380Z,63.74
2022-11-11T12:52:53.936Z,63.76
2022-11-11T12:56:24.115Z,63.71
2022-11-11T12:59:53.119Z,63.93
2022-11-11T13:02:47.397Z,63.70
2022-11-11T13:05:33.122Z,64.20
2022-11-11T13:08:37.562Z,63.90
2022-11-11T13:12:18.326Z,63.92
2022-11-11T13:15:16.047Z,63.82
2022-11-11T13:18:02.587Z,63.60
2022-11-11T13:20:55.075Z,63.81
2022-11-11T13:23:40.967Z,63.58
2022-11-11T13:26:33.465Z,63.80
2022-11-11T13:29:44.359Z,63.90
2022-11-11T13:32:40.610Z,63.57
2022-11-11T13:35:57.852Z,64.01
2022-11-11T13:38:50.556Z,63.83
2022-11-11T13:41:40.924Z,63.96
2022-11-11T13:44:34.296Z,63.83
2022-11-11T13:47:25.528Z,63.64
2022-11-11T13:50:30.277Z,63.66
2022-11-11T13:53:42.610Z,63.81
2022-11-11T13:56:31.125Z,63.67
2022-11-11T13:59:29.711Z,63.58
2022-11-11T14:02:18.454Z,63.58
2022-11-11T14:05:05.952Z,63.60
2022-11-11T14:07:56.187Z,63.57
2022-11-11T14:10:59.741Z,63.53
2022-11-11T14:13:45.664Z,63.38
2022-11-11T14:16:37.317Z,63.49
2022-11-11T14:19:23.034Z,63.50
2022-11-11T14:22:32.135Z,63.56
2022-11-11T14:25:26.381Z,63.54
2022-11-11T14:28:27.447Z,63.49
2022-11-11T14:31:14.362Z,63.48
2022-11-11T14:34:08.407Z,63.44
2022-11-11T14:37:15.806Z,63.57
2022-11-11T14:40:01.957Z,63.59
2022-11-11T14:42:48.099Z,63.49
2022-11-11T14:45:36.773Z,63.28
2022-11-11T14:49:02.012Z,63.48
2022-11-11T14:51:53.972Z,63.49
2022-11-11T14:54:53.428Z,63.51
2022-11-11T14:57:42.049Z,63.25
2022-11-11T15:00:31.699Z,63.31
2022-11-11T15:03:50.083Z,63.40
2022-11-11T15:06:57.770Z,63.41
2022-11-11T15:10:18.811Z,63.60
2022-11-11T15:13:11.083Z,63.05
2022-11-11T15:16:05.391Z,63.31
2022-11-11T15:18:57.099Z,63.29
2022-11-11T15:21:58.374Z,63.24
2022-11-11T15:25:09.013Z,63.23
2022-11-11T15:28:20.330Z,63.19
2022-11-11T15:31:25.239Z,63.24
2022-11-11T15:34:30.999Z,63.15
2022-11-11T15:37:20.170Z,63.26
2022-11-11T15:40:07.160Z,63.15
2022-11-11T15:42:53.747Z,63.38
2022-11-11T15:45:41.035Z,63.23
2022-11-11T15:48:31.205Z,63.17
2022-11-11T15:51:30.983Z,63.11
2022-11-11T15:54:17.522Z,63.37
2022-11-11T15:57:30.126Z,63.36
2022-11-11T16:00:25.255Z,63.45
2022-11-11T16:03:16.349Z,63.41
2022-11-11T16:06:05.391Z,63.83
2022-11-11T16:08:54.078Z,64.08
2022-11-11T16:11:41.038Z,64.18
2022-11-11T16:14:36.869Z,64.45
2022-11-11T16:17:29.040Z,64.35
2022-11-11T16:20:16.985Z,64.33
2022-11-11T16:23:07.229Z,64.07
2022-11-11T16:25:53.965Z,64.45
2022-11-11T16:28:46.323Z,64.31
2022-11-11T16:31:39.561Z,64.26
2022-11-11T16:34:29.473Z,64.15
2022-11-11T16:37:17.317Z,63.96
2022-11-11T16:40:25.285Z,64.04
2022-11-11T16:43:31.441Z,63.89
2022-11-11T16:46:37.191Z,63.84
2022-11-11T16:49:32.277Z,63.74
2022-11-11T16:52:24.664Z,63.78
2022-11-11T16:55:19.465Z,63.80
2022-11-11T16:58:14.522Z,63.78
2022-11-11T17:01:04.001Z,63.86
2022-11-11T17:03:57.418Z,63.87
2022-11-11T17:06:49.570Z,63.70
2022-11-11T17:09:40.731Z,63.77
2022-11-11T17:12:31.543Z,63.92
2022-11-11T17:15:20.525Z,63.71
2022-11-11T17:18:09.054Z,63.68
2022-11-11T17:20:57.825Z,63.69
2022-11-11T17:23:43.708Z,63.48
2022-11-11T17:26:29.581Z,63.54
2022-11-11T17:29:15.773Z,63.52
2022-11-11T17:32:01.425Z,63.21
2022-11-11T17:34:47.493Z,63.48
2022-11-11T17:37:35.442Z,63.54
2022-11-11T17:40:21.514Z,63.63
2022-11-11T17:43:07.291Z,63.46
2022-11-11T17:45:53.221Z,63.55
2022-11-11T17:48:39.313Z,63.46
2022-11-11T17:51:25.535Z,63.24
2022-11-11T17:54:11.052Z,63.25
2022-11-11T17:56:59.046Z,63.51
2022-11-11T17:59:45.109Z,63.43
2022-11-11T18:02:31.277Z,63.33
2022-11-11T18:05:16.981Z,63.14
2022-11-11T18:08:03.703Z,63.32
2022-11-11T18:10:49.918Z,63.16
2022-11-11T18:13:36.133Z,63.14
2022-11-11T18:16:23.784Z,63.25
2022-11-11T18:19:11.027Z,63.09
2022-11-11T18:21:57.112Z,63.06
2022-11-11T18:24:43.585Z,63.33
2022-11-11T18:27:29.347Z,63.22
2022-11-11T18:30:15.569Z,63.23
2022-11-11T18:33:02.679Z,63.09
2022-11-11T18:35:48.446Z,63.02
2022-11-11T18:38:36.075Z,63.07
2022-11-11T18:41:23.756Z,63.23
2022-11-11T18:44:09.752Z,62.95
2022-11-11T18:46:55.697Z,63.14
2022-11-11T18:49:41.327Z,63.02
2022-11-11T18:52:27.315Z,62.91
2022-11-11T18:55:12.935Z,63.32
2022-11-11T18:57:58.905Z,63.04
2022-11-11T19:00:44.788Z,63.19
2022-11-11T19:03:31.314Z,62.87
2022-11-11T19:06:18.041Z,63.05
2022-11-11T19:09:13.862Z,63.22
2022-11-11T19:11:59.799Z,62.96
2022-11-11T19:14:45.854Z,62.97
2022-11-11T19:17:31.733Z,62.99
2022-11-11T19:20:17.637Z,62.78
2022-11-11T19:23:04.056Z,62.83
2022-11-11T19:25:50.003Z,62.87
2022-11-11T19:28:37.070Z,63.13
2022-11-11T19:31:28.624Z,62.90
2022-11-11T19:34:14.478Z,62.87
2022-11-11T19:37:00.584Z,62.72
2022-11-11T19:39:46.475Z,62.71
2022-11-11T19:42:32.234Z,62.68
2022-11-11T19:45:18.270Z,62.94
2022-11-11T19:48:04.576Z,62.80
2022-11-11T19:50:50.195Z,62.75
2022-11-11T19:53:36.965Z,62.69
2022-11-11T19:56:22.999Z,62.60
2022-11-11T19:59:10.078Z,62.65
2022-11-11T20:01:55.699Z,62.61
2022-11-11T20:04:41.758Z,62.51
2022-11-11T20:07:27.434Z,62.63
2022-11-11T20:10:13.474Z,62.68
2022-11-11T20:12:59.414Z,62.48
2022-11-11T20:15:45.611Z,62.58
2022-11-11T20:18:32.799Z,62.68
2022-11-11T20:21:18.456Z,62.51
2022-11-11T20:24:09.301Z,62.56
2022-11-11T20:26:55.171Z,62.54
2022-11-11T20:29:41.078Z,62.43
2022-11-11T20:32:27.573Z,62.40
2022-11-11T20:35:13.721Z,62.35
2022-11-11T20:37:59.855Z,62.16
2022-11-11T20:40:45.597Z,62.16
2022-11-11T20:43:34.195Z,62.30
2022-11-11T20:46:20.735Z,62.31
2022-11-11T20:49:06.396Z,62.13
2022-11-11T20:51:52.273Z,62.20
2022-11-11T20:54:39.391Z,62.11
2022-11-11T20:57:25.375Z,62.29
2022-11-11T21:00:13.559Z,62.21
2022-11-11T21:02:59.377Z,62.12
2022-11-11T21:05:45.169Z,62.09
2022-11-11T21:08:33.069Z,61.90
2022-11-11T21:11:21.504Z,61.97
2022-11-11T21:14:08.439Z,61.99
2022-11-11T21:16:54.852Z,61.93
2022-11-11T21:19:40.978Z,61.76
2022-11-11T21:22:26.899Z,62.02
2022-11-11T21:25:12.758Z,61.93
2022-11-11T21:28:00.056Z,61.73
2022-11-11T21:30:46.139Z,61.92
2022-11-11T21:33:32.355Z,61.80
2022-11-11T21:36:18.867Z,61.71
2022-11-11T21:39:06.505Z,61.84
2022-11-11T21:41:52.722Z,61.75
2022-11-11T21:44:38.207Z,61.49
2022-11-11T21:47:24.172Z,61.76
2022-11-11T21:50:10.025Z,61.72
2022-11-11T21:52:56.017Z,61.59
2022-11-11T21:55:48.144Z,61.59
2022-11-11T21:58:35.079Z,61.65
2022-11-11T22:01:26.170Z,61.49
2022-11-11T22:04:14.887Z,61.52
2022-11-11T22:07:00.623Z,61.59
2022-11-11T22:09:46.454Z,61.42
2022-11-11T22:12:36.109Z,61.41
2022-11-11T22:15:22.196Z,61.52
2022-11-11T22:18:08.120Z,61.41
2022-11-11T22:20:54.481Z,61.71
2022-11-11T22:23:40.152Z,61.45
2022-11-11T22:26:27.853Z,61.33
2022-11-11T22:29:13.556Z,61.36
2022-11-11T22:31:59.808Z,61.62
2022-11-11T22:34:45.600Z,61.23
2022-11-11T22:37:31.307Z,61.27
2022-11-11T22:40:17.542Z,61.25
2022-11-11T22:43:03.546Z,61.27
2022-11-11T22:45:57.285Z,61.27
2022-11-11T22:48:52.393Z,61.09
2022-11-11T22:51:41.861Z,61.20
2022-11-11T22:54:27.667Z,61.22
2022-11-11T22:57:13.486Z,60.87
2022-11-11T22:59:59.420Z,60.92
2022-11-11T23:02:45.315Z,61.22
2022-11-11T23:05:31.480Z,61.07
2022-11-11T23:08:16.932Z,60.90
2022-11-11T23:11:07.503Z,61.10
2022-11-11T23:13:59.329Z,60.96
2022-11-11T23:16:48.380Z,60.83
2022-11-11T23:19:37.903Z,60.98
2022-11-11T23:22:23.887Z,60.94
2022-11-11T23:25:10.268Z,60.99
2022-11-11T23:27:56.171Z,61.12
2022-11-11T23:30:42.361Z,61.28
2022-11-11T23:33:31.651Z,61.07
2022-11-11T23:36:20.067Z,61.06
2022-11-11T23:39:06.173Z,61.02
2022-11-11T23:41:52.185Z,61.02
2022-11-11T23:44:38.164Z,60.90
2022-11-11T23:47:23.773Z,60.18
2022-11-11T23:50:19.149Z,60.79
2022-11-11T23:53:04.731Z,61.22
2022-11-11T23:55:50.817Z,61.21
2022-11-11T23:58:36.675Z,61.20
